sensor_id;sensor_type;location;lat;lon;timestamp;temperature;humidity
27544;DHT22;17996;51.056;3.656;2022-10-23T00:00:10;15.60;99.90
27544;DHT22;17996;51.056;3.656;2022-10-23T00:02:36;15.60;99.90
27544;DHT22;17996;51.056;3.656;2022-10-23T00:05:02;15.60;99.90
27544;DHT22;17996;51.056;3.656;2022-10-23T00:07:27;15.60;99.90
27544;DHT22;17996;51.056;3.656;2022-10-23T00:09:53;15.60;99.90
27544;DHT22;17996;51.056;3.656;2022-10-23T00:12:19;15.70;99.90
27544;DHT22;17996;51.056;3.656;2022-10-23T00:14:44;15.60;99.90
27544;DHT22;17996;51.056;3.656;2022-10-23T00:17:10;15.70;99.90
27544;DHT22;17996;51.056;3.656;2022-10-23T00:19:36;15.70;99.90
27544;DHT22;17996;51.056;3.656;2022-10-23T00:22:02;15.80;99.90
27544;DHT22;17996;51.056;3.656;2022-10-23T00:24:27;15.70;99.90
27544;DHT22;17996;51.056;3.656;2022-10-23T00:26:53;15.80;99.90
27544;DHT22;17996;51.056;3.656;2022-10-23T00:29:19;15.60;99.90
27544;DHT22;17996;51.056;3.656;2022-10-23T00:31:44;15.60;99.90
27544;DHT22;17996;51.056;3.656;2022-10-23T00:34:10;15.70;99.90
27544;DHT22;17996;51.056;3.656;2022-10-23T00:36:36;15.80;99.90
27544;DHT22;17996;51.056;3.656;2022-10-23T00:39:03;15.70;99.90
27544;DHT22;17996;51.056;3.656;2022-10-23T00:41:30;15.70;99.90
27544;DHT22;17996;51.056;3.656;2022-10-23T00:46:28;15.60;99.90
27544;DHT22;17996;51.056;3.656;2022-10-23T00:48:55;15.60;99.90
27544;DHT22;17996;51.056;3.656;2022-10-23T00:51:21;15.80;99.90
27544;DHT22;17996;51.056;3.656;2022-10-23T00:53:49;15.60;99.90
27544;DHT22;17996;51.056;3.656;2022-10-23T00:56:17;15.70;99.90
27544;DHT22;17996;51.056;3.656;2022-10-23T00:58:42;15.60;99.90
27544;DHT22;17996;51.056;3.656;2022-10-23T01:01:16;15.70;99.90
27544;DHT22;17996;51.056;3.656;2022-10-23T01:03:44;15.70;99.90
27544;DHT22;17996;51.056;3.656;2022-10-23T01:14:37;15.60;99.90
27544;DHT22;17996;51.056;3.656;2022-10-23T01:17:12;15.60;99.90
27544;DHT22;17996;51.056;3.656;2022-10-23T01:22:52;15.60;99.90
27544;DHT22;17996;51.056;3.656;2022-10-23T01:28:03;15.60;99.90
27544;DHT22;17996;51.056;3.656;2022-10-23T01:30:29;15.60;99.90
27544;DHT22;17996;51.056;3.656;2022-10-23T01:33:07;15.60;99.90
27544;DHT22;17996;51.056;3.656;2022-10-23T01:36:14;15.70;99.90
27544;DHT22;17996;51.056;3.656;2022-10-23T01:39:02;15.70;99.90
27544;DHT22;17996;51.056;3.656;2022-10-23T01:41:40;15.70;99.90
27544;DHT22;17996;51.056;3.656;2022-10-23T01:44:22;15.60;99.90
27544;DHT22;17996;51.056;3.656;2022-10-23T01:46:49;15.70;99.90
27544;DHT22;17996;51.056;3.656;2022-10-23T01:49:16;15.70;99.90
27544;DHT22;17996;51.056;3.656;2022-10-23T01:52:00;15.60;99.90
27544;DHT22;17996;51.056;3.656;2022-10-23T01:54:33;15.70;99.90
27544;DHT22;17996;51.056;3.656;2022-10-23T01:57:01;15.70;99.90
27544;DHT22;17996;51.056;3.656;2022-10-23T01:59:34;15.60;99.90
27544;DHT22;17996;51.056;3.656;2022-10-23T02:02:03;15.70;99.90
27544;DHT22;17996;51.056;3.656;2022-10-23T02:04:35;15.70;99.90
27544;DHT22;17996;51.056;3.656;2022-10-23T02:07:02;15.80;99.90
27544;DHT22;17996;51.056;3.656;2022-10-23T02:09:28;15.70;99.90
27544;DHT22;17996;51.056;3.656;2022-10-23T02:12:04;15.70;99.90
27544;DHT22;17996;51.056;3.656;2022-10-23T02:17:20;15.70;99.90
27544;DHT22;17996;51.056;3.656;2022-10-23T02:22:33;15.70;99.90
27544;DHT22;17996;51.056;3.656;2022-10-23T02:30:10;15.60;99.90
27544;DHT22;17996;51.056;3.656;2022-10-23T02:32:40;15.70;99.90
27544;DHT22;17996;51.056;3.656;2022-10-23T02:35:07;15.60;99.90
27544;DHT22;17996;51.056;3.656;2022-10-23T02:37:33;15.60;99.90
27544;DHT22;17996;51.056;3.656;2022-10-23T02:39:59;15.60;99.90
27544;DHT22;17996;51.056;3.656;2022-10-23T02:42:26;15.60;99.90
27544;DHT22;17996;51.056;3.656;2022-10-23T02:50:36;15.60;99.90
27544;DHT22;17996;51.056;3.656;2022-10-23T02:53:17;15.60;99.90
27544;DHT22;17996;51.056;3.656;2022-10-23T02:58:36;15.60;99.90
27544;DHT22;17996;51.056;3.656;2022-10-23T03:01:09;15.60;99.90
27544;DHT22;17996;51.056;3.656;2022-10-23T03:03:43;15.60;99.90
27544;DHT22;17996;51.056;3.656;2022-10-23T03:06:10;15.60;99.90
27544;DHT22;17996;51.056;3.656;2022-10-23T03:09:06;15.50;99.90
27544;DHT22;17996;51.056;3.656;2022-10-23T03:11:32;15.50;99.90
27544;DHT22;17996;51.056;3.656;2022-10-23T03:13:57;15.50;99.90
27544;DHT22;17996;51.056;3.656;2022-10-23T03:16:23;15.60;99.90
27544;DHT22;17996;51.056;3.656;2022-10-23T03:18:49;15.40;99.90
27544;DHT22;17996;51.056;3.656;2022-10-23T03:21:15;15.50;99.90
27544;DHT22;17996;51.056;3.656;2022-10-23T03:23:40;15.50;99.90
27544;DHT22;17996;51.056;3.656;2022-10-23T03:26:06;15.50;99.90
27544;DHT22;17996;51.056;3.656;2022-10-23T03:28:33;15.50;99.90
27544;DHT22;17996;51.056;3.656;2022-10-23T03:31:00;15.50;99.90
27544;DHT22;17996;51.056;3.656;2022-10-23T03:33:30;15.60;99.90
27544;DHT22;17996;51.056;3.656;2022-10-23T03:35:56;15.50;99.90
27544;DHT22;17996;51.056;3.656;2022-10-23T03:38:21;15.50;99.90
27544;DHT22;17996;51.056;3.656;2022-10-23T03:40:47;15.60;99.90
27544;DHT22;17996;51.056;3.656;2022-10-23T03:43:13;15.60;99.90
27544;DHT22;17996;51.056;3.656;2022-10-23T03:45:38;15.80;99.90
27544;DHT22;17996;51.056;3.656;2022-10-23T03:48:05;15.60;99.90
27544;DHT22;17996;51.056;3.656;2022-10-23T03:50:31;15.60;99.90
27544;DHT22;17996;51.056;3.656;2022-10-23T03:52:57;15.60;99.90
27544;DHT22;17996;51.056;3.656;2022-10-23T03:55:22;15.50;99.90
27544;DHT22;17996;51.056;3.656;2022-10-23T03:57:50;15.50;99.90
27544;DHT22;17996;51.056;3.656;2022-10-23T04:00:15;15.60;99.90
27544;DHT22;17996;51.056;3.656;2022-10-23T04:02:41;15.50;99.90
27544;DHT22;17996;51.056;3.656;2022-10-23T04:05:07;15.40;99.90
27544;DHT22;17996;51.056;3.656;2022-10-23T04:07:33;15.50;99.90
27544;DHT22;17996;51.056;3.656;2022-10-23T04:09:58;15.50;99.90
27544;DHT22;17996;51.056;3.656;2022-10-23T04:12:24;15.40;99.90
27544;DHT22;17996;51.056;3.656;2022-10-23T04:14:50;15.50;99.90
27544;DHT22;17996;51.056;3.656;2022-10-23T04:17:15;15.70;99.90
27544;DHT22;17996;51.056;3.656;2022-10-23T04:19:41;15.50;99.90
27544;DHT22;17996;51.056;3.656;2022-10-23T04:22:06;15.50;99.90
27544;DHT22;17996;51.056;3.656;2022-10-23T04:24:32;15.50;99.90
27544;DHT22;17996;51.056;3.656;2022-10-23T04:26:58;15.60;99.90
27544;DHT22;17996;51.056;3.656;2022-10-23T04:29:24;15.50;99.90
27544;DHT22;17996;51.056;3.656;2022-10-23T04:31:50;15.50;99.90
27544;DHT22;17996;51.056;3.656;2022-10-23T04:34:17;15.50;99.90
27544;DHT22;17996;51.056;3.656;2022-10-23T04:36:42;15.60;99.90
27544;DHT22;17996;51.056;3.656;2022-10-23T04:39:09;15.50;99.90
27544;DHT22;17996;51.056;3.656;2022-10-23T04:41:36;15.60;99.90
27544;DHT22;17996;51.056;3.656;2022-10-23T04:44:03;15.40;99.90
27544;DHT22;17996;51.056;3.656;2022-10-23T04:46:29;15.40;99.90
27544;DHT22;17996;51.056;3.656;2022-10-23T04:48:54;15.40;99.90
27544;DHT22;17996;51.056;3.656;2022-10-23T04:51:20;15.40;99.90
27544;DHT22;17996;51.056;3.656;2022-10-23T04:53:46;15.40;99.90
27544;DHT22;17996;51.056;3.656;2022-10-23T04:56:13;15.40;99.90
27544;DHT22;17996;51.056;3.656;2022-10-23T04:58:42;15.40;99.90
27544;DHT22;17996;51.056;3.656;2022-10-23T05:01:09;15.40;99.90
27544;DHT22;17996;51.056;3.656;2022-10-23T05:03:38;15.40;99.90
27544;DHT22;17996;51.056;3.656;2022-10-23T05:06:04;15.30;99.90
27544;DHT22;17996;51.056;3.656;2022-10-23T05:08:31;15.40;99.90
27544;DHT22;17996;51.056;3.656;2022-10-23T05:10:57;15.30;99.90
27544;DHT22;17996;51.056;3.656;2022-10-23T05:13:22;15.30;99.90
27544;DHT22;17996;51.056;3.656;2022-10-23T05:15:50;15.20;99.90
27544;DHT22;17996;51.056;3.656;2022-10-23T05:21:11;15.30;99.90
27544;DHT22;17996;51.056;3.656;2022-10-23T05:23:40;15.30;99.90
27544;DHT22;17996;51.056;3.656;2022-10-23T05:26:06;15.30;99.90
27544;DHT22;17996;51.056;3.656;2022-10-23T05:28:31;15.30;99.90
27544;DHT22;17996;51.056;3.656;2022-10-23T05:30:59;15.30;99.90
27544;DHT22;17996;51.056;3.656;2022-10-23T05:33:26;15.20;99.90
27544;DHT22;17996;51.056;3.656;2022-10-23T05:35:52;15.30;99.90
27544;DHT22;17996;51.056;3.656;2022-10-23T05:38:18;15.30;99.90
27544;DHT22;17996;51.056;3.656;2022-10-23T05:40:44;15.20;99.90
27544;DHT22;17996;51.056;3.656;2022-10-23T05:43:09;15.20;99.90
27544;DHT22;17996;51.056;3.656;2022-10-23T05:45:35;15.40;99.90
27544;DHT22;17996;51.056;3.656;2022-10-23T05:48:01;15.40;99.90
27544;DHT22;17996;51.056;3.656;2022-10-23T05:50:26;15.30;99.90
27544;DHT22;17996;51.056;3.656;2022-10-23T05:52:52;15.50;99.90
27544;DHT22;17996;51.056;3.656;2022-10-23T05:55:18;15.40;99.90
27544;DHT22;17996;51.056;3.656;2022-10-23T05:57:43;15.50;99.90
27544;DHT22;17996;51.056;3.656;2022-10-23T06:00:09;15.30;99.90
27544;DHT22;17996;51.056;3.656;2022-10-23T06:02:35;15.40;99.90
27544;DHT22;17996;51.056;3.656;2022-10-23T06:05:01;15.40;99.90
27544;DHT22;17996;51.056;3.656;2022-10-23T06:07:28;15.40;99.90
27544;DHT22;17996;51.056;3.656;2022-10-23T06:09:54;15.40;99.90
27544;DHT22;17996;51.056;3.656;2022-10-23T06:12:20;15.40;99.90
27544;DHT22;17996;51.056;3.656;2022-10-23T06:14:46;15.40;99.90
27544;DHT22;17996;51.056;3.656;2022-10-23T06:17:12;15.40;99.90
27544;DHT22;17996;51.056;3.656;2022-10-23T06:19:38;15.40;99.90
27544;DHT22;17996;51.056;3.656;2022-10-23T06:22:04;15.40;99.90
27544;DHT22;17996;51.056;3.656;2022-10-23T06:24:29;15.40;99.90
27544;DHT22;17996;51.056;3.656;2022-10-23T06:26:56;15.40;99.90
27544;DHT22;17996;51.056;3.656;2022-10-23T06:29:22;15.50;99.90
27544;DHT22;17996;51.056;3.656;2022-10-23T06:31:48;15.40;99.90
27544;DHT22;17996;51.056;3.656;2022-10-23T06:34:14;15.50;99.90
27544;DHT22;17996;51.056;3.656;2022-10-23T06:36:41;15.40;99.90
27544;DHT22;17996;51.056;3.656;2022-10-23T06:39:08;15.50;99.90
27544;DHT22;17996;51.056;3.656;2022-10-23T06:41:34;15.60;99.90
27544;DHT22;17996;51.056;3.656;2022-10-23T06:44:00;15.50;99.90
27544;DHT22;17996;51.056;3.656;2022-10-23T06:46:26;15.60;99.90
27544;DHT22;17996;51.056;3.656;2022-10-23T06:48:53;15.60;99.90
27544;DHT22;17996;51.056;3.656;2022-10-23T06:51:18;15.60;99.90
27544;DHT22;17996;51.056;3.656;2022-10-23T06:53:45;15.60;99.90
27544;DHT22;17996;51.056;3.656;2022-10-23T06:56:11;15.60;99.90
27544;DHT22;17996;51.056;3.656;2022-10-23T06:58:38;15.60;99.90
27544;DHT22;17996;51.056;3.656;2022-10-23T07:01:06;15.60;99.90
27544;DHT22;17996;51.056;3.656;2022-10-23T07:03:33;15.60;99.90
27544;DHT22;17996;51.056;3.656;2022-10-23T07:06:03;15.60;99.90
27544;DHT22;17996;51.056;3.656;2022-10-23T07:08:31;15.60;99.90
27544;DHT22;17996;51.056;3.656;2022-10-23T07:10:56;15.70;99.90
27544;DHT22;17996;51.056;3.656;2022-10-23T07:13:22;15.70;99.90
27544;DHT22;17996;51.056;3.656;2022-10-23T07:15:49;15.80;99.90
27544;DHT22;17996;51.056;3.656;2022-10-23T07:18:16;15.70;99.90
27544;DHT22;17996;51.056;3.656;2022-10-23T07:20:42;15.70;99.90
27544;DHT22;17996;51.056;3.656;2022-10-23T07:23:10;15.80;99.90
27544;DHT22;17996;51.056;3.656;2022-10-23T07:25:36;15.90;99.90
27544;DHT22;17996;51.056;3.656;2022-10-23T07:28:03;15.80;99.90
27544;DHT22;17996;51.056;3.656;2022-10-23T07:30:29;15.90;99.90
27544;DHT22;17996;51.056;3.656;2022-10-23T07:32:54;15.90;99.90
27544;DHT22;17996;51.056;3.656;2022-10-23T07:35:20;16.10;99.90
27544;DHT22;17996;51.056;3.656;2022-10-23T07:37:46;15.90;99.90
27544;DHT22;17996;51.056;3.656;2022-10-23T07:40:13;15.90;99.90
27544;DHT22;17996;51.056;3.656;2022-10-23T07:42:39;15.80;99.90
27544;DHT22;17996;51.056;3.656;2022-10-23T07:45:05;16.00;99.90
27544;DHT22;17996;51.056;3.656;2022-10-23T07:47:32;16.00;99.90
27544;DHT22;17996;51.056;3.656;2022-10-23T07:49:58;16.00;99.90
27544;DHT22;17996;51.056;3.656;2022-10-23T07:52:23;16.00;99.90
27544;DHT22;17996;51.056;3.656;2022-10-23T07:54:52;16.10;99.90
27544;DHT22;17996;51.056;3.656;2022-10-23T07:57:19;16.10;99.90
27544;DHT22;17996;51.056;3.656;2022-10-23T07:59:46;16.10;99.90
27544;DHT22;17996;51.056;3.656;2022-10-23T08:02:13;16.10;99.90
27544;DHT22;17996;51.056;3.656;2022-10-23T08:04:39;16.20;99.90
27544;DHT22;17996;51.056;3.656;2022-10-23T08:07:06;16.20;99.90
27544;DHT22;17996;51.056;3.656;2022-10-23T08:09:31;16.20;99.90
27544;DHT22;17996;51.056;3.656;2022-10-23T08:11:59;16.20;99.90
27544;DHT22;17996;51.056;3.656;2022-10-23T08:14:25;16.20;99.90
27544;DHT22;17996;51.056;3.656;2022-10-23T08:16:51;16.20;99.90
27544;DHT22;17996;51.056;3.656;2022-10-23T08:19:16;16.20;99.90
27544;DHT22;17996;51.056;3.656;2022-10-23T08:21:43;16.30;99.90
27544;DHT22;17996;51.056;3.656;2022-10-23T08:24:10;16.30;99.90
27544;DHT22;17996;51.056;3.656;2022-10-23T08:26:39;16.30;99.90
27544;DHT22;17996;51.056;3.656;2022-10-23T08:29:05;16.30;99.90
27544;DHT22;17996;51.056;3.656;2022-10-23T08:31:30;16.40;99.90
27544;DHT22;17996;51.056;3.656;2022-10-23T08:33:56;16.40;99.90
27544;DHT22;17996;51.056;3.656;2022-10-23T08:36:24;16.50;99.90
27544;DHT22;17996;51.056;3.656;2022-10-23T08:38:51;16.50;99.90
27544;DHT22;17996;51.056;3.656;2022-10-23T08:44:13;16.50;99.90
27544;DHT22;17996;51.056;3.656;2022-10-23T08:46:46;16.60;99.90
27544;DHT22;17996;51.056;3.656;2022-10-23T08:49:42;16.70;99.90
27544;DHT22;17996;51.056;3.656;2022-10-23T08:52:27;16.60;99.90
27544;DHT22;17996;51.056;3.656;2022-10-23T08:55:03;16.60;99.90
27544;DHT22;17996;51.056;3.656;2022-10-23T08:57:39;16.60;99.90
27544;DHT22;17996;51.056;3.656;2022-10-23T09:00:13;16.60;99.90
27544;DHT22;17996;51.056;3.656;2022-10-23T09:02:42;16.60;99.90
27544;DHT22;17996;51.056;3.656;2022-10-23T09:05:18;16.60;99.90
27544;DHT22;17996;51.056;3.656;2022-10-23T09:07:58;16.60;99.90
27544;DHT22;17996;51.056;3.656;2022-10-23T09:11:00;16.60;99.90
27544;DHT22;17996;51.056;3.656;2022-10-23T09:19:17;16.70;99.90
27544;DHT22;17996;51.056;3.656;2022-10-23T09:21:45;16.80;99.90
27544;DHT22;17996;51.056;3.656;2022-10-23T09:24:17;16.80;99.90
27544;DHT22;17996;51.056;3.656;2022-10-23T09:26:44;16.90;99.90
27544;DHT22;17996;51.056;3.656;2022-10-23T09:29:33;16.90;99.90
27544;DHT22;17996;51.056;3.656;2022-10-23T09:32:05;17.00;99.90
27544;DHT22;17996;51.056;3.656;2022-10-23T09:34:32;17.10;99.90
27544;DHT22;17996;51.056;3.656;2022-10-23T09:39:45;17.20;99.90
27544;DHT22;17996;51.056;3.656;2022-10-23T09:42:29;17.20;99.90
27544;DHT22;17996;51.056;3.656;2022-10-23T09:44:55;17.30;99.90
27544;DHT22;17996;51.056;3.656;2022-10-23T09:47:23;17.30;99.90
27544;DHT22;17996;51.056;3.656;2022-10-23T09:49:54;17.40;99.90
27544;DHT22;17996;51.056;3.656;2022-10-23T09:52:28;17.50;99.90
27544;DHT22;17996;51.056;3.656;2022-10-23T09:54:57;17.40;99.90
27544;DHT22;17996;51.056;3.656;2022-10-23T09:57:41;17.50;99.90
27544;DHT22;17996;51.056;3.656;2022-10-23T10:00:17;17.50;99.90
27544;DHT22;17996;51.056;3.656;2022-10-23T10:10:54;17.70;99.90
27544;DHT22;17996;51.056;3.656;2022-10-23T10:13:51;17.80;99.90
27544;DHT22;17996;51.056;3.656;2022-10-23T10:16:32;17.80;99.90
27544;DHT22;17996;51.056;3.656;2022-10-23T10:19:21;17.80;99.90
27544;DHT22;17996;51.056;3.656;2022-10-23T10:25:14;17.90;99.90
27544;DHT22;17996;51.056;3.656;2022-10-23T10:30:36;18.00;99.90
27544;DHT22;17996;51.056;3.656;2022-10-23T10:33:21;18.10;99.90
27544;DHT22;17996;51.056;3.656;2022-10-23T10:36:56;18.10;99.90
27544;DHT22;17996;51.056;3.656;2022-10-23T10:45:10;18.30;99.90
27544;DHT22;17996;51.056;3.656;2022-10-23T10:48:14;18.40;99.90
27544;DHT22;17996;51.056;3.656;2022-10-23T10:51:02;18.50;99.90
27544;DHT22;17996;51.056;3.656;2022-10-23T10:53:33;18.50;99.90
27544;DHT22;17996;51.056;3.656;2022-10-23T10:56:03;18.50;99.90
27544;DHT22;17996;51.056;3.656;2022-10-23T10:58:38;18.50;99.90
27544;DHT22;17996;51.056;3.656;2022-10-23T11:01:20;18.60;99.90
27544;DHT22;17996;51.056;3.656;2022-10-23T11:06:51;18.90;99.90
27544;DHT22;17996;51.056;3.656;2022-10-23T11:09:26;18.90;99.90
27544;DHT22;17996;51.056;3.656;2022-10-23T11:11:53;19.00;99.90
27544;DHT22;17996;51.056;3.656;2022-10-23T11:14:28;19.10;99.90
27544;DHT22;17996;51.056;3.656;2022-10-23T11:17:09;19.10;99.90
27544;DHT22;17996;51.056;3.656;2022-10-23T11:19:46;19.20;99.90
27544;DHT22;17996;51.056;3.656;2022-10-23T11:22:30;19.20;99.90
27544;DHT22;17996;51.056;3.656;2022-10-23T11:30:42;19.40;99.90
27544;DHT22;17996;51.056;3.656;2022-10-23T11:38:33;19.50;99.90
27544;DHT22;17996;51.056;3.656;2022-10-23T11:41:05;19.50;99.90
27544;DHT22;17996;51.056;3.656;2022-10-23T11:48:50;19.70;99.90
27544;DHT22;17996;51.056;3.656;2022-10-23T11:51:40;19.60;99.90
27544;DHT22;17996;51.056;3.656;2022-10-23T12:01:48;19.80;99.90
27544;DHT22;17996;51.056;3.656;2022-10-23T12:05:07;19.80;99.90
27544;DHT22;17996;51.056;3.656;2022-10-23T12:07:29;19.80;99.90
27544;DHT22;17996;51.056;3.656;2022-10-23T12:10:03;19.90;99.90
27544;DHT22;17996;51.056;3.656;2022-10-23T12:17:40;19.80;99.90
27544;DHT22;17996;51.056;3.656;2022-10-23T12:39:35;20.00;99.90
27544;DHT22;17996;51.056;3.656;2022-10-23T12:42:02;19.90;99.90
27544;DHT22;17996;51.056;3.656;2022-10-23T12:44:28;19.90;99.90
27544;DHT22;17996;51.056;3.656;2022-10-23T12:46:57;19.90;99.90
27544;DHT22;17996;51.056;3.656;2022-10-23T12:49:25;20.00;99.90
27544;DHT22;17996;51.056;3.656;2022-10-23T12:52:03;20.00;99.90
27544;DHT22;17996;51.056;3.656;2022-10-23T12:54:30;20.00;99.90
27544;DHT22;17996;51.056;3.656;2022-10-23T12:56:56;20.10;99.90
27544;DHT22;17996;51.056;3.656;2022-10-23T13:01:51;20.10;99.90
27544;DHT22;17996;51.056;3.656;2022-10-23T13:06:51;20.20;99.90
27544;DHT22;17996;51.056;3.656;2022-10-23T13:09:41;20.20;99.90
27544;DHT22;17996;51.056;3.656;2022-10-23T13:12:08;20.30;99.90
27544;DHT22;17996;51.056;3.656;2022-10-23T13:14:41;20.40;99.90
27544;DHT22;17996;51.056;3.656;2022-10-23T13:17:09;20.50;99.90
27544;DHT22;17996;51.056;3.656;2022-10-23T13:19:35;20.60;99.90
27544;DHT22;17996;51.056;3.656;2022-10-23T13:22:03;20.70;99.90
27544;DHT22;17996;51.056;3.656;2022-10-23T13:24:30;20.70;99.90
27544;DHT22;17996;51.056;3.656;2022-10-23T13:26:58;20.80;99.90
27544;DHT22;17996;51.056;3.656;2022-10-23T13:29:33;20.80;99.90
27544;DHT22;17996;51.056;3.656;2022-10-23T13:32:19;20.80;99.90
27544;DHT22;17996;51.056;3.656;2022-10-23T13:34:52;20.80;99.90
27544;DHT22;17996;51.056;3.656;2022-10-23T13:37:26;20.80;99.90
27544;DHT22;17996;51.056;3.656;2022-10-23T13:40:06;20.80;99.90
27544;DHT22;17996;51.056;3.656;2022-10-23T13:42:47;20.80;99.90
27544;DHT22;17996;51.056;3.656;2022-10-23T13:45:17;20.80;99.90
27544;DHT22;17996;51.056;3.656;2022-10-23T13:47:43;20.80;99.90
27544;DHT22;17996;51.056;3.656;2022-10-23T13:50:09;20.80;99.90
27544;DHT22;17996;51.056;3.656;2022-10-23T13:52:36;20.90;99.90
27544;DHT22;17996;51.056;3.656;2022-10-23T13:55:08;20.90;99.90
27544;DHT22;17996;51.056;3.656;2022-10-23T13:57:34;20.90;99.90
27544;DHT22;17996;51.056;3.656;2022-10-23T14:00:00;20.80;99.90
27544;DHT22;17996;51.056;3.656;2022-10-23T14:02:26;20.70;99.90
27544;DHT22;17996;51.056;3.656;2022-10-23T14:04:51;20.60;99.90
27544;DHT22;17996;51.056;3.656;2022-10-23T14:07:17;20.60;99.90
27544;DHT22;17996;51.056;3.656;2022-10-23T14:09:43;20.50;99.90
27544;DHT22;17996;51.056;3.656;2022-10-23T14:12:08;20.50;99.90
27544;DHT22;17996;51.056;3.656;2022-10-23T14:14:36;20.40;99.90
27544;DHT22;17996;51.056;3.656;2022-10-23T14:17:02;20.40;99.90
27544;DHT22;17996;51.056;3.656;2022-10-23T14:19:27;20.40;99.90
27544;DHT22;17996;51.056;3.656;2022-10-23T14:21:53;20.30;99.90
27544;DHT22;17996;51.056;3.656;2022-10-23T14:24:18;20.30;99.90
27544;DHT22;17996;51.056;3.656;2022-10-23T14:26:44;20.30;99.90
27544;DHT22;17996;51.056;3.656;2022-10-23T14:29:10;20.30;99.90
27544;DHT22;17996;51.056;3.656;2022-10-23T14:31:35;20.20;99.90
27544;DHT22;17996;51.056;3.656;2022-10-23T14:34:01;20.20;99.90
27544;DHT22;17996;51.056;3.656;2022-10-23T14:36:27;20.10;99.90
27544;DHT22;17996;51.056;3.656;2022-10-23T14:38:56;20.10;99.90
27544;DHT22;17996;51.056;3.656;2022-10-23T14:41:24;20.00;99.90
27544;DHT22;17996;51.056;3.656;2022-10-23T14:43:49;20.00;99.90
27544;DHT22;17996;51.056;3.656;2022-10-23T14:46:19;19.90;99.90
27544;DHT22;17996;51.056;3.656;2022-10-23T14:48:45;19.90;99.90
27544;DHT22;17996;51.056;3.656;2022-10-23T14:53:52;19.90;99.90
27544;DHT22;17996;51.056;3.656;2022-10-23T14:56:18;19.80;99.90
27544;DHT22;17996;51.056;3.656;2022-10-23T14:58:44;19.80;99.90
27544;DHT22;17996;51.056;3.656;2022-10-23T15:01:09;19.80;99.90
27544;DHT22;17996;51.056;3.656;2022-10-23T15:03:35;19.80;99.90
27544;DHT22;17996;51.056;3.656;2022-10-23T15:06:01;19.80;99.90
27544;DHT22;17996;51.056;3.656;2022-10-23T15:08:26;19.70;99.90
27544;DHT22;17996;51.056;3.656;2022-10-23T15:10:52;19.80;99.90
27544;DHT22;17996;51.056;3.656;2022-10-23T15:13:18;19.80;99.90
27544;DHT22;17996;51.056;3.656;2022-10-23T15:15:44;19.90;99.90
27544;DHT22;17996;51.056;3.656;2022-10-23T15:18:09;19.90;99.90
27544;DHT22;17996;51.056;3.656;2022-10-23T15:20:35;20.00;99.90
27544;DHT22;17996;51.056;3.656;2022-10-23T15:23:00;20.00;99.90
27544;DHT22;17996;51.056;3.656;2022-10-23T15:25:27;20.10;99.90
27544;DHT22;17996;51.056;3.656;2022-10-23T15:27:53;20.20;99.90
27544;DHT22;17996;51.056;3.656;2022-10-23T15:30:19;20.20;99.90
27544;DHT22;17996;51.056;3.656;2022-10-23T15:32:44;20.30;99.90
27544;DHT22;17996;51.056;3.656;2022-10-23T15:35:10;20.30;99.90
27544;DHT22;17996;51.056;3.656;2022-10-23T15:37:35;20.20;99.90
27544;DHT22;17996;51.056;3.656;2022-10-23T15:40:01;20.20;99.90
27544;DHT22;17996;51.056;3.656;2022-10-23T15:42:27;20.10;99.90
27544;DHT22;17996;51.056;3.656;2022-10-23T15:44:52;20.10;99.90
27544;DHT22;17996;51.056;3.656;2022-10-23T15:47:18;20.10;99.90
27544;DHT22;17996;51.056;3.656;2022-10-23T15:49:44;20.00;99.90
27544;DHT22;17996;51.056;3.656;2022-10-23T15:52:09;19.90;99.90
27544;DHT22;17996;51.056;3.656;2022-10-23T15:54:35;19.80;99.90
27544;DHT22;17996;51.056;3.656;2022-10-23T15:57:02;19.80;99.90
27544;DHT22;17996;51.056;3.656;2022-10-23T15:59:28;19.70;99.90
27544;DHT22;17996;51.056;3.656;2022-10-23T16:01:54;19.60;99.90
27544;DHT22;17996;51.056;3.656;2022-10-23T16:04:20;19.50;99.90
27544;DHT22;17996;51.056;3.656;2022-10-23T16:06:46;19.40;99.90
27544;DHT22;17996;51.056;3.656;2022-10-23T16:09:13;19.40;99.90
27544;DHT22;17996;51.056;3.656;2022-10-23T16:11:40;19.30;99.90
27544;DHT22;17996;51.056;3.656;2022-10-23T16:14:08;19.30;99.90
27544;DHT22;17996;51.056;3.656;2022-10-23T16:16:36;19.20;99.90
27544;DHT22;17996;51.056;3.656;2022-10-23T16:19:02;19.10;99.90
27544;DHT22;17996;51.056;3.656;2022-10-23T16:21:31;19.10;99.90
27544;DHT22;17996;51.056;3.656;2022-10-23T16:23:58;19.00;99.90
27544;DHT22;17996;51.056;3.656;2022-10-23T16:26:24;19.00;99.90
27544;DHT22;17996;51.056;3.656;2022-10-23T16:28:59;19.10;99.90
27544;DHT22;17996;51.056;3.656;2022-10-23T16:31:25;18.90;99.90
27544;DHT22;17996;51.056;3.656;2022-10-23T16:33:51;18.90;99.90
27544;DHT22;17996;51.056;3.656;2022-10-23T16:36:17;18.90;99.90
27544;DHT22;17996;51.056;3.656;2022-10-23T16:38:43;18.90;99.90
27544;DHT22;17996;51.056;3.656;2022-10-23T16:41:09;18.90;99.90
27544;DHT22;17996;51.056;3.656;2022-10-23T16:43:35;18.90;99.90
27544;DHT22;17996;51.056;3.656;2022-10-23T16:46:12;18.90;99.90
27544;DHT22;17996;51.056;3.656;2022-10-23T16:48:38;18.90;99.90
27544;DHT22;17996;51.056;3.656;2022-10-23T16:51:09;18.90;99.90
27544;DHT22;17996;51.056;3.656;2022-10-23T16:53:36;18.90;99.90
27544;DHT22;17996;51.056;3.656;2022-10-23T16:56:03;18.90;99.90
27544;DHT22;17996;51.056;3.656;2022-10-23T16:58:29;18.90;99.90
27544;DHT22;17996;51.056;3.656;2022-10-23T17:01:09;18.90;99.90
27544;DHT22;17996;51.056;3.656;2022-10-23T17:03:38;18.90;99.90
27544;DHT22;17996;51.056;3.656;2022-10-23T17:06:06;18.90;99.90
27544;DHT22;17996;51.056;3.656;2022-10-23T17:08:32;18.90;99.90
27544;DHT22;17996;51.056;3.656;2022-10-23T17:13:42;18.90;99.90
27544;DHT22;17996;51.056;3.656;2022-10-23T17:16:17;18.90;99.90
27544;DHT22;17996;51.056;3.656;2022-10-23T17:18:44;18.90;99.90
27544;DHT22;17996;51.056;3.656;2022-10-23T17:21:11;18.80;99.90
27544;DHT22;17996;51.056;3.656;2022-10-23T17:23:37;18.80;99.90
27544;DHT22;17996;51.056;3.656;2022-10-23T17:26:06;18.90;99.90
27544;DHT22;17996;51.056;3.656;2022-10-23T17:28:32;18.90;99.90
27544;DHT22;17996;51.056;3.656;2022-10-23T17:31:02;18.90;99.90
27544;DHT22;17996;51.056;3.656;2022-10-23T17:33:28;19.00;99.90
27544;DHT22;17996;51.056;3.656;2022-10-23T17:35:53;19.00;99.90
27544;DHT22;17996;51.056;3.656;2022-10-23T17:38:19;19.00;99.90
27544;DHT22;17996;51.056;3.656;2022-10-23T17:40:45;19.00;99.90
27544;DHT22;17996;51.056;3.656;2022-10-23T17:43:13;19.10;99.90
27544;DHT22;17996;51.056;3.656;2022-10-23T17:45:39;19.00;99.90
27544;DHT22;17996;51.056;3.656;2022-10-23T17:48:08;19.00;99.90
27544;DHT22;17996;51.056;3.656;2022-10-23T17:50:34;19.00;99.90
27544;DHT22;17996;51.056;3.656;2022-10-23T17:53:00;18.90;99.90